Time;durP1;ratioP1;P1;durP2;ratioP2;P2;SDS_P1;SDS_P2;PMS_P1;PMS_P2;Temp;Humidity;BMP_temperature;BMP_pressure;BME280_temperature;BME280_humidity;BME280_pressure;Samples;Min_cycle;Max_cycle;Signal;HPM_P1;HPM_P2
2023/06/16 00:02:21;;;;;;;8.00;5.47;;;;;;;;;;4980603;28;20577;-90
2023/06/16 00:04:49;;;;;;;10.43;5.55;;;;;;;;;;4983014;28;20465;-90
2023/06/16 00:07:19;;;;;;;5.90;5.25;;;;;;;;;;4984814;28;20690;-90
2023/06/16 00:09:46;;;;;;;14.52;5.90;;;;;;;;;;4963017;28;20820;-91
2023/06/16 00:12:12;;;;;;;7.68;5.60;;;;;;;;;;4983804;28;20050;-90
2023/06/16 00:14:47;;;;;;;7.53;5.63;;;;;;;;;;4972327;28;20046;-91
2023/06/16 00:17:56;;;;;;;15.65;6.10;;;;;;;;;;4967507;28;20080;-90
2023/06/16 00:20:26;;;;;;;7.63;6.20;;;;;;;;;;4982851;28;20046;-90
2023/06/16 00:22:52;;;;;;;9.40;5.95;;;;;;;;;;4965390;28;20050;-91
2023/06/16 00:25:19;;;;;;;9.70;6.10;;;;;;;;;;4982437;28;20042;-91
2023/06/16 00:27:45;;;;;;;7.57;6.00;;;;;;;;;;4967830;28;20030;-91
2023/06/16 00:30:14;;;;;;;10.80;5.80;;;;;;;;;;4983240;28;20046;-91
2023/06/16 00:32:53;;;;;;;12.10;6.32;;;;;;;;;;4968386;28;20508;-90
2023/06/16 00:35:19;;;;;;;9.23;6.68;;;;;;;;;;4964377;28;20125;-90
2023/06/16 00:37:45;;;;;;;7.63;6.57;;;;;;;;;;4967143;28;20034;-89
2023/06/16 00:40:12;;;;;;;11.18;7.10;;;;;;;;;;4967613;28;20103;-90
2023/06/16 00:42:39;;;;;;;8.75;7.53;;;;;;;;;;4968327;28;20099;-90
2023/06/16 00:45:05;;;;;;;12.48;7.00;;;;;;;;;;4964676;28;20046;-89
2023/06/16 00:47:32;;;;;;;11.18;6.57;;;;;;;;;;4966943;28;20121;-90
2023/06/16 00:49:58;;;;;;;9.73;6.72;;;;;;;;;;4983486;28;20061;-89
2023/06/16 00:52:26;;;;;;;9.38;6.57;;;;;;;;;;4983001;28;20121;-90
2023/06/16 00:54:54;;;;;;;8.88;7.28;;;;;;;;;;4982414;28;20063;-88
2023/06/16 00:57:20;;;;;;;16.02;7.70;;;;;;;;;;4993255;28;20098;-90
2023/06/16 00:59:46;;;;;;;9.50;6.43;;;;;;;;;;4983916;28;20058;-90
2023/06/16 01:02:58;;;;;;;11.95;6.88;;;;;;;;;;4969942;28;20050;-89
2023/06/16 01:05:36;;;;;;;10.95;6.53;;;;;;;;;;4986805;28;20059;-90
2023/06/16 01:08:44;;;;;;;10.10;6.55;;;;;;;;;;4982760;28;20125;-90
2023/06/16 01:11:29;;;;;;;16.88;6.72;;;;;;;;;;4967178;28;20062;-90
2023/06/16 01:14:05;;;;;;;10.10;6.63;;;;;;;;;;4968613;28;20046;-89
2023/06/16 01:16:58;;;;;;;8.30;7.00;;;;;;;;;;4972514;28;20135;-89
2023/06/16 01:19:37;;;;;;;10.52;7.40;;;;;;;;;;4985106;28;20073;-90
2023/06/16 01:22:09;;;;;;;9.52;7.25;;;;;;;;;;4966765;28;20070;-90
2023/06/16 01:24:35;;;;;;;8.88;7.65;;;;;;;;;;4964506;28;20054;-90
2023/06/16 01:27:02;;;;;;;11.60;8.25;;;;;;;;;;4988306;28;20057;-91
2023/06/16 01:29:35;;;;;;;9.82;7.95;;;;;;;;;;4969209;28;20406;-90
2023/06/16 01:32:03;;;;;;;10.35;8.43;;;;;;;;;;4966248;28;20059;-90
2023/06/16 01:34:33;;;;;;;12.77;8.88;;;;;;;;;;4985875;28;20046;-90
2023/06/16 01:37:00;;;;;;;9.93;8.60;;;;;;;;;;4987518;28;20057;-90
2023/06/16 01:39:28;;;;;;;13.18;8.63;;;;;;;;;;4983588;28;20046;-89
2023/06/16 01:42:03;;;;;;;11.30;8.43;;;;;;;;;;4984860;28;20054;-89
2023/06/16 01:44:29;;;;;;;10.38;8.75;;;;;;;;;;4968354;28;20069;-90
2023/06/16 01:46:56;;;;;;;12.52;9.15;;;;;;;;;;4969898;28;20051;-89
2023/06/16 01:49:23;;;;;;;11.63;8.57;;;;;;;;;;4986243;28;20133;-89
2023/06/16 01:52:21;;;;;;;12.65;9.07;;;;;;;;;;4968990;28;20056;-91
2023/06/16 01:55:32;;;;;;;12.45;8.80;;;;;;;;;;4987480;28;20141;-90
2023/06/16 01:57:58;;;;;;;10.75;9.15;;;;;;;;;;4968542;28;20129;-89
2023/06/16 02:00:44;;;;;;;13.68;8.95;;;;;;;;;;4970187;28;20054;-89
2023/06/16 02:03:43;;;;;;;11.27;9.95;;;;;;;;;;4983857;28;20054;-89
2023/06/16 02:06:11;;;;;;;11.75;9.77;;;;;;;;;;4983868;28;20077;-90
2023/06/16 02:08:38;;;;;;;13.27;10.18;;;;;;;;;;4967827;28;20047;-89
2023/06/16 02:11:05;;;;;;;14.65;9.52;;;;;;;;;;4984271;28;20050;-89
2023/06/16 02:13:31;;;;;;;14.05;10.60;;;;;;;;;;4962539;28;20042;-90
2023/06/16 02:15:57;;;;;;;16.90;11.90;;;;;;;;;;4985143;28;20429;-90
2023/06/16 02:18:24;;;;;;;14.13;10.82;;;;;;;;;;4965705;28;20103;-90
2023/06/16 02:20:50;;;;;;;15.57;11.55;;;;;;;;;;4968320;28;20493;-90
2023/06/16 02:23:18;;;;;;;17.30;12.45;;;;;;;;;;4985179;28;20050;-89
2023/06/16 02:25:44;;;;;;;11.95;10.70;;;;;;;;;;4969045;28;20381;-89
2023/06/16 02:28:10;;;;;;;16.77;11.82;;;;;;;;;;4969381;28;20053;-89
2023/06/16 02:30:36;;;;;;;16.15;11.45;;;;;;;;;;4969200;28;20054;-90
2023/06/16 02:33:02;;;;;;;11.27;10.18;;;;;;;;;;4966683;28;20047;-91
2023/06/16 02:35:28;;;;;;;12.68;10.77;;;;;;;;;;4965352;28;20054;-90
2023/06/16 02:37:54;;;;;;;12.73;10.60;;;;;;;;;;4984925;28;20074;-88
2023/06/16 02:40:20;;;;;;;15.02;11.68;;;;;;;;;;4984843;28;20055;-90
2023/06/16 02:42:47;;;;;;;12.43;10.57;;;;;;;;;;4985414;28;20406;-89
2023/06/16 02:45:13;;;;;;;13.00;10.85;;;;;;;;;;4982344;28;20054;-90
2023/06/16 02:47:40;;;;;;;14.07;10.82;;;;;;;;;;4983985;28;20042;-90
2023/06/16 02:50:09;;;;;;;12.57;11.10;;;;;;;;;;4964805;28;20046;-90
2023/06/16 02:52:35;;;;;;;12.32;10.52;;;;;;;;;;4980489;28;20054;-89
2023/06/16 02:55:03;;;;;;;13.50;11.63;;;;;;;;;;4967827;28;20540;-89
2023/06/16 02:57:29;;;;;;;17.02;11.68;;;;;;;;;;4953699;28;20054;-90
2023/06/16 02:59:55;;;;;;;13.88;11.70;;;;;;;;;;4967605;28;20046;-90
2023/06/16 03:02:22;;;;;;;16.23;11.07;;;;;;;;;;4968499;28;20054;-89
2023/06/16 03:04:48;;;;;;;14.82;11.38;;;;;;;;;;4984073;28;20057;-90
2023/06/16 03:07:14;;;;;;;18.77;11.43;;;;;;;;;;4984141;28;20133;-90
2023/06/16 03:09:41;;;;;;;15.63;11.63;;;;;;;;;;4966752;28;20047;-90
2023/06/16 03:12:08;;;;;;;16.80;12.15;;;;;;;;;;4968393;28;20042;-89
2023/06/16 03:14:34;;;;;;;15.55;12.32;;;;;;;;;;4965441;28;20078;-90
2023/06/16 03:17:00;;;;;;;16.55;11.57;;;;;;;;;;4980440;28;20093;-90
2023/06/16 03:19:26;;;;;;;14.57;12.27;;;;;;;;;;4983200;28;20057;-90
2023/06/16 03:21:52;;;;;;;14.55;12.18;;;;;;;;;;4989463;28;20462;-89
2023/06/16 03:24:18;;;;;;;13.60;12.20;;;;;;;;;;4984426;28;20116;-90
2023/06/16 03:26:45;;;;;;;14.55;12.23;;;;;;;;;;4983960;28;20053;-90
2023/06/16 03:29:15;;;;;;;14.35;12.23;;;;;;;;;;4966838;28;20042;-89
2023/06/16 03:31:41;;;;;;;20.83;13.18;;;;;;;;;;4972889;28;20590;-89
2023/06/16 03:34:07;;;;;;;16.13;12.88;;;;;;;;;;4968404;28;20057;-89
2023/06/16 03:36:35;;;;;;;13.82;11.68;;;;;;;;;;4979501;28;20050;-89
2023/06/16 03:39:03;;;;;;;16.33;14.05;;;;;;;;;;4984933;28;20128;-90
2023/06/16 03:41:29;;;;;;;16.17;14.18;;;;;;;;;;4966148;28;20050;-90
2023/06/16 03:43:55;;;;;;;16.30;13.75;;;;;;;;;;5002383;28;20053;-90
2023/06/16 03:46:21;;;;;;;20.05;13.57;;;;;;;;;;4969977;28;20111;-89
2023/06/16 03:48:47;;;;;;;14.95;13.23;;;;;;;;;;4954741;28;20062;-89
2023/06/16 03:51:13;;;;;;;16.85;12.73;;;;;;;;;;4969132;28;20042;-89
2023/06/16 03:53:39;;;;;;;13.45;12.05;;;;;;;;;;4966407;28;20146;-89
2023/06/16 03:56:05;;;;;;;13.85;12.07;;;;;;;;;;4969017;28;20054;-89
2023/06/16 03:58:31;;;;;;;19.95;12.60;;;;;;;;;;4984077;28;20046;-89
2023/06/16 04:00:58;;;;;;;17.73;13.68;;;;;;;;;;4964662;28;20091;-89
2023/06/16 04:03:26;;;;;;;17.00;13.68;;;;;;;;;;4967515;28;20057;-89
2023/06/16 04:05:53;;;;;;;16.37;13.43;;;;;;;;;;4983832;28;20050;-89
2023/06/16 04:08:19;;;;;;;15.95;13.43;;;;;;;;;;4966815;28;20308;-90
2023/06/16 04:10:45;;;;;;;19.25;13.52;;;;;;;;;;4982769;28;20050;-89
2023/06/16 04:13:11;;;;;;;16.38;13.48;;;;;;;;;;4968413;28;20045;-89
2023/06/16 04:15:37;;;;;;;15.00;13.50;;;;;;;;;;4983605;28;20038;-90
2023/06/16 04:18:03;;;;;;;16.10;14.25;;;;;;;;;;4985869;28;20421;-89
2023/06/16 04:20:45;;;;;;;20.77;13.88;;;;;;;;;;4969532;28;20045;-89
2023/06/16 04:23:11;;;;;;;16.70;14.93;;;;;;;;;;4968968;28;20716;-90
2023/06/16 04:25:38;;;;;;;19.42;14.90;;;;;;;;;;4969469;28;20359;-89
2023/06/16 04:28:05;;;;;;;21.70;15.30;;;;;;;;;;4969065;28;20050;-89
2023/06/16 04:30:33;;;;;;;20.70;17.15;;;;;;;;;;4983727;28;20041;-90
2023/06/16 04:33:01;;;;;;;19.02;16.17;;;;;;;;;;4963075;28;20043;-89
2023/06/16 04:35:29;;;;;;;19.90;15.95;;;;;;;;;;4967519;28;20074;-89
2023/06/16 04:37:57;;;;;;;21.65;15.52;;;;;;;;;;4966589;28;20054;-89
2023/06/16 04:40:23;;;;;;;16.85;15.05;;;;;;;;;;4983707;28;20056;-90
2023/06/16 04:42:49;;;;;;;16.73;15.07;;;;;;;;;;4968146;28;20089;-89
2023/06/16 04:45:16;;;;;;;16.92;15.23;;;;;;;;;;4958890;28;20096;-89
2023/06/16 04:47:45;;;;;;;20.55;16.05;;;;;;;;;;4966597;28;20042;-90
2023/06/16 04:50:11;;;;;;;19.42;14.70;;;;;;;;;;4965084;28;20058;-90
2023/06/16 04:52:39;;;;;;;19.60;14.65;;;;;;;;;;4982175;28;20061;-90
2023/06/16 04:55:06;;;;;;;17.58;15.23;;;;;;;;;;4964965;28;20535;-90
2023/06/16 04:57:32;;;;;;;16.50;14.77;;;;;;;;;;4982005;28;20039;-90
2023/06/16 04:59:59;;;;;;;16.75;14.98;;;;;;;;;;4967347;28;20429;-90
2023/06/16 05:02:25;;;;;;;18.05;14.88;;;;;;;;;;4966981;28;20046;-90
2023/06/16 05:04:51;;;;;;;16.17;14.38;;;;;;;;;;4963677;28;20047;-88
2023/06/16 05:07:17;;;;;;;18.45;14.25;;;;;;;;;;4982129;28;20050;-91
2023/06/16 05:09:43;;;;;;;17.00;14.23;;;;;;;;;;4968450;28;20508;-91
2023/06/16 05:12:09;;;;;;;17.35;14.35;;;;;;;;;;4969247;28;20035;-90
2023/06/16 05:14:35;;;;;;;19.70;14.82;;;;;;;;;;4963495;28;20058;-91
2023/06/16 05:17:01;;;;;;;18.05;15.10;;;;;;;;;;4970791;28;20049;-90
2023/06/16 05:19:28;;;;;;;23.13;15.48;;;;;;;;;;4985328;28;20170;-90
2023/06/16 05:21:54;;;;;;;18.52;14.95;;;;;;;;;;4967946;28;20153;-88
2023/06/16 05:24:20;;;;;;;17.33;14.65;;;;;;;;;;4984478;28;20081;-89
2023/06/16 05:26:46;;;;;;;16.00;14.40;;;;;;;;;;4981136;28;20135;-90
2023/06/16 05:29:12;;;;;;;15.18;13.40;;;;;;;;;;4969631;28;20050;-89
2023/06/16 05:31:38;;;;;;;15.23;13.63;;;;;;;;;;4984447;28;20053;-90
2023/06/16 05:34:04;;;;;;;17.50;15.50;;;;;;;;;;4967769;28;20090;-90
2023/06/16 05:36:34;;;;;;;18.25;14.80;;;;;;;;;;4984540;28;20054;-90
2023/06/16 05:39:00;;;;;;;17.83;15.93;;;;;;;;;;4985485;28;20046;-90
2023/06/16 05:41:28;;;;;;;19.65;17.75;;;;;;;;;;4969729;28;20774;-90
2023/06/16 05:43:57;;;;;;;22.25;18.08;;;;;;;;;;4984758;28;20050;-91
2023/06/16 05:46:24;;;;;;;20.40;17.10;;;;;;;;;;4969293;28;20077;-89
2023/06/16 05:48:50;;;;;;;23.88;17.85;;;;;;;;;;4984410;28;20050;-90
2023/06/16 05:51:16;;;;;;;21.27;18.40;;;;;;;;;;4968231;28;20039;-91
2023/06/16 05:53:42;;;;;;;20.10;17.27;;;;;;;;;;4984688;28;20043;-90
2023/06/16 05:56:08;;;;;;;18.48;16.33;;;;;;;;;;4987214;28;20145;-91
2023/06/16 05:58:36;;;;;;;21.17;16.98;;;;;;;;;;4982861;28;20098;-91
2023/06/16 06:01:06;;;;;;;18.95;16.70;;;;;;;;;;4981973;28;20038;-90
2023/06/16 06:03:32;;;;;;;20.88;17.35;;;;;;;;;;4969002;28;20286;-91
2023/06/16 06:05:58;;;;;;;17.75;15.50;;;;;;;;;;4982287;28;20402;-90
2023/06/16 06:08:27;;;;;;;19.17;15.80;;;;;;;;;;4986305;28;20411;-91
2023/06/16 06:11:11;;;;;;;15.82;13.45;;;;;;;;;;4980896;28;20494;-92
2023/06/16 06:13:37;;;;;;;16.05;13.35;;;;;;;;;;4976094;28;20113;-92
2023/06/16 06:16:03;;;;;;;14.75;13.32;;;;;;;;;;4964854;28;20077;-90
2023/06/16 06:18:30;;;;;;;15.77;12.45;;;;;;;;;;4966771;28;20045;-90
2023/06/16 06:20:56;;;;;;;18.58;12.95;;;;;;;;;;4964295;28;20119;-90
2023/06/16 06:23:24;;;;;;;13.30;12.00;;;;;;;;;;4965824;28;20524;-90
2023/06/16 06:25:50;;;;;;;14.15;12.68;;;;;;;;;;4967224;28;20521;-91
2023/06/16 06:28:16;;;;;;;16.52;12.60;;;;;;;;;;4964034;28;20101;-92
2023/06/16 06:30:43;;;;;;;15.27;11.40;;;;;;;;;;4966008;28;20484;-91
2023/06/16 06:33:09;;;;;;;15.30;12.02;;;;;;;;;;4968495;28;20042;-91
2023/06/16 06:35:35;;;;;;;12.98;11.45;;;;;;;;;;4966446;28;20054;-89
2023/06/16 06:38:03;;;;;;;20.70;12.88;;;;;;;;;;4968255;28;20100;-89
2023/06/16 06:40:31;;;;;;;22.13;13.75;;;;;;;;;;4992878;28;20082;-90
2023/06/16 06:42:57;;;;;;;;;;;;;;;;;;4973440;28;20046;-90
2023/06/16 06:45:23;;;;;;;15.90;13.65;;;;;;;;;;4980877;28;19925;-90
2023/06/16 06:47:49;;;;;;;17.00;13.32;;;;;;;;;;4968719;28;20047;-90
2023/06/16 06:50:15;;;;;;;16.50;13.85;;;;;;;;;;4981320;28;20046;-92
2023/06/16 06:52:41;;;;;;;27.60;12.93;;;;;;;;;;4966395;28;20477;-91
2023/06/16 06:55:08;;;;;;;14.13;12.63;;;;;;;;;;4980548;28;20520;-90
2023/06/16 06:57:34;;;;;;;15.05;13.40;;;;;;;;;;4968425;28;20057;-88
2023/06/16 07:00:00;;;;;;;17.90;13.68;;;;;;;;;;4985072;28;20460;-90
2023/06/16 07:02:26;;;;;;;16.25;13.35;;;;;;;;;;4984611;28;20055;-88
2023/06/16 07:04:52;;;;;;;21.52;12.73;;;;;;;;;;4978929;28;20048;-88
2023/06/16 07:07:18;;;;;;;15.13;13.25;;;;;;;;;;4969311;28;20383;-89
2023/06/16 07:09:45;;;;;;;16.20;12.20;;;;;;;;;;4969042;28;20058;-90
2023/06/16 07:12:11;;;;;;;17.50;11.65;;;;;;;;;;4968649;28;20043;-89
2023/06/16 07:14:37;;;;;;;14.48;10.65;;;;;;;;;;4983539;28;20052;-89
2023/06/16 07:17:03;;;;;;;12.30;10.23;;;;;;;;;;4985448;28;20062;-90
2023/06/16 07:19:32;;;;;;;11.85;9.82;;;;;;;;;;4967810;28;20046;-88
2023/06/16 07:22:00;;;;;;;16.70;10.95;;;;;;;;;;4984423;28;20071;-89
2023/06/16 07:24:26;;;;;;;12.85;10.52;;;;;;;;;;4965586;28;20051;-88
2023/06/16 07:26:52;;;;;;;12.40;9.98;;;;;;;;;;4975949;28;20050;-87
2023/06/16 07:29:19;;;;;;;12.43;10.43;;;;;;;;;;4984531;28;20068;-88
2023/06/16 07:31:45;;;;;;;12.88;9.70;;;;;;;;;;4966192;28;20042;-87
2023/06/16 07:34:11;;;;;;;11.50;9.70;;;;;;;;;;4965323;28;20476;-88
2023/06/16 07:36:38;;;;;;;14.23;11.18;;;;;;;;;;4984330;28;20046;-89
2023/06/16 07:39:04;;;;;;;12.40;9.25;;;;;;;;;;4967667;28;20042;-90
2023/06/16 07:41:32;;;;;;;12.07;9.45;;;;;;;;;;4966779;28;20068;-90
2023/06/16 07:43:58;;;;;;;12.20;7.90;;;;;;;;;;4984922;28;20108;-91
2023/06/16 07:46:24;;;;;;;12.45;7.90;;;;;;;;;;4979403;28;20049;-88
2023/06/16 07:48:50;;;;;;;8.85;7.60;;;;;;;;;;4985078;28;20466;-89
2023/06/16 07:51:16;;;;;;;10.52;6.53;;;;;;;;;;4957125;28;20459;-89
2023/06/16 07:53:42;;;;;;;8.85;7.50;;;;;;;;;;4971442;28;20437;-90
2023/06/16 07:56:09;;;;;;;8.77;7.38;;;;;;;;;;4990924;28;20054;-90
2023/06/16 07:58:38;;;;;;;9.57;7.18;;;;;;;;;;4976385;28;20062;-89
2023/06/16 08:01:04;;;;;;;8.02;7.07;;;;;;;;;;4984596;28;20520;-88
2023/06/16 08:03:31;;;;;;;12.48;8.90;;;;;;;;;;4983631;28;20046;-88
2023/06/16 08:05:57;;;;;;;11.30;8.32;;;;;;;;;;4968409;28;20115;-87
2023/06/16 08:08:27;;;;;;;10.73;7.50;;;;;;;;;;4969975;28;20046;-90
2023/06/16 08:10:55;;;;;;;8.88;7.93;;;;;;;;;;4966390;28;20417;-90
2023/06/16 08:13:21;;;;;;;10.38;7.50;;;;;;;;;;4968689;28;20049;-89
2023/06/16 08:15:47;;;;;;;13.25;6.85;;;;;;;;;;4973513;28;20030;-89
2023/06/16 08:18:14;;;;;;;10.23;6.55;;;;;;;;;;4975648;28;20101;-87
2023/06/16 08:20:40;;;;;;;11.15;6.88;;;;;;;;;;4968503;28;20042;-90
2023/06/16 08:23:06;;;;;;;9.65;6.93;;;;;;;;;;4967460;28;20050;-89
2023/06/16 08:25:32;;;;;;;12.43;6.45;;;;;;;;;;4968058;28;20133;-91
2023/06/16 08:27:59;;;;;;;7.80;6.90;;;;;;;;;;4986069;28;20085;-90
2023/06/16 08:30:26;;;;;;;11.85;6.68;;;;;;;;;;4969795;28;20034;-90
2023/06/16 08:32:53;;;;;;;7.43;5.97;;;;;;;;;;4968272;28;20042;-89
2023/06/16 08:35:19;;;;;;;12.95;7.43;;;;;;;;;;4969488;28;20110;-89
2023/06/16 08:37:45;;;;;;;7.35;6.13;;;;;;;;;;4958298;28;20136;-88
2023/06/16 08:40:12;;;;;;;7.55;5.93;;;;;;;;;;4976278;28;20046;-90
2023/06/16 08:42:38;;;;;;;6.82;5.68;;;;;;;;;;4970913;28;20526;-90
2023/06/16 08:45:06;;;;;;;5.55;4.97;;;;;;;;;;5005322;28;20107;-90
2023/06/16 08:47:34;;;;;;;4.95;4.47;;;;;;;;;;4995701;28;20045;-89
2023/06/16 08:50:00;;;;;;;8.27;4.32;;;;;;;;;;4988650;28;20027;-89
2023/06/16 08:52:28;;;;;;;6.75;4.50;;;;;;;;;;4991595;28;20054;-89
2023/06/16 08:54:57;;;;;;;9.75;6.25;;;;;;;;;;4984533;28;20050;-89
2023/06/16 08:57:24;;;;;;;10.40;5.10;;;;;;;;;;4979477;28;20116;-87
2023/06/16 08:59:55;;;;;;;15.05;5.57;;;;;;;;;;4984017;28;20046;-88
2023/06/16 09:02:21;;;;;;;10.27;5.32;;;;;;;;;;4985024;28;20046;-88
2023/06/16 09:04:48;;;;;;;13.40;5.22;;;;;;;;;;4986957;28;20054;-87
2023/06/16 09:07:19;;;;;;;9.63;5.28;;;;;;;;;;4991981;28;20034;-88
2023/06/16 09:09:46;;;;;;;9.55;4.90;;;;;;;;;;4982609;28;20129;-88
2023/06/16 09:12:12;;;;;;;8.57;4.95;;;;;;;;;;4971232;28;20889;-89
2023/06/16 09:14:39;;;;;;;6.47;4.00;;;;;;;;;;4969575;28;20073;-89
2023/06/16 09:17:07;;;;;;;8.77;3.83;;;;;;;;;;4988273;28;20052;-88
2023/06/16 09:19:52;;;;;;;19.55;4.38;;;;;;;;;;4983315;28;20053;-90
2023/06/16 09:22:20;;;;;;;4.72;3.78;;;;;;;;;;4997237;28;20043;-89
2023/06/16 09:24:55;;;;;;;4.72;3.58;;;;;;;;;;4958595;28;20042;-89
2023/06/16 09:27:23;;;;;;;7.78;3.75;;;;;;;;;;4966697;28;20510;-91
2023/06/16 09:29:50;;;;;;;7.88;3.78;;;;;;;;;;4984400;28;20051;-89
2023/06/16 09:32:17;;;;;;;5.13;3.60;;;;;;;;;;4983033;28;20568;-89
2023/06/16 09:34:46;;;;;;;4.22;3.50;;;;;;;;;;4970267;28;20160;-89
2023/06/16 09:37:12;;;;;;;4.78;3.20;;;;;;;;;;4970883;28;20149;-90
2023/06/16 09:39:38;;;;;;;5.03;2.97;;;;;;;;;;4982885;28;20046;-89
2023/06/16 09:42:04;;;;;;;7.50;3.10;;;;;;;;;;4968848;28;20046;-89
2023/06/16 09:44:31;;;;;;;9.57;2.92;;;;;;;;;;4972286;28;20089;-87
2023/06/16 09:47:01;;;;;;;7.35;3.20;;;;;;;;;;4964218;28;20050;-88
2023/06/16 09:49:30;;;;;;;4.18;2.83;;;;;;;;;;4966047;28;20042;-89
2023/06/16 09:51:57;;;;;;;5.35;3.42;;;;;;;;;;4964509;28;20074;-90
2023/06/16 09:54:24;;;;;;;5.60;3.10;;;;;;;;;;4977428;28;20331;-90
2023/06/16 09:56:50;;;;;;;3.47;2.95;;;;;;;;;;4974117;28;20038;-89
2023/06/16 09:59:20;;;;;;;7.60;3.40;;;;;;;;;;4968319;28;20456;-88
2023/06/16 10:01:47;;;;;;;12.50;3.22;;;;;;;;;;4970200;28;20054;-88
2023/06/16 10:04:15;;;;;;;6.47;3.00;;;;;;;;;;4981401;28;20591;-88
2023/06/16 10:06:47;;;;;;;5.45;2.85;;;;;;;;;;4983413;28;20089;-88
2023/06/16 10:09:14;;;;;;;4.53;2.90;;;;;;;;;;4977412;28;20054;-88
2023/06/16 10:11:40;;;;;;;9.32;2.95;;;;;;;;;;4983124;28;20547;-88
2023/06/16 10:14:08;;;;;;;4.13;3.20;;;;;;;;;;4993815;28;20109;-90
2023/06/16 10:16:36;;;;;;;151.40;11.55;;;;;;;;;;4963498;28;20165;-89
2023/06/16 10:19:03;;;;;;;7.13;2.63;;;;;;;;;;4991714;28;20054;-90
2023/06/16 10:21:31;;;;;;;6.57;3.10;;;;;;;;;;4959378;28;20062;-89
2023/06/16 10:23:57;;;;;;;5.32;2.60;;;;;;;;;;4985883;28;20052;-89
2023/06/16 10:26:24;;;;;;;4.78;2.60;;;;;;;;;;4979903;28;20074;-88
2023/06/16 10:28:50;;;;;;;7.90;2.70;;;;;;;;;;4981566;28;20060;-89
2023/06/16 10:31:18;;;;;;;4.30;2.55;;;;;;;;;;4979208;28;20056;-89
2023/06/16 10:34:04;;;;;;;5.50;2.92;;;;;;;;;;4962305;28;20080;-89
2023/06/16 10:36:33;;;;;;;6.45;2.50;;;;;;;;;;4964613;28;20181;-88
2023/06/16 10:39:01;;;;;;;7.32;2.40;;;;;;;;;;4966533;28;20045;-89
2023/06/16 10:41:29;;;;;;;;;;;;;;;;;;4972407;28;20046;-89
2023/06/16 10:43:55;;;;;;;5.72;2.45;;;;;;;;;;4975219;28;20000;-92
2023/06/16 10:46:21;;;;;;;10.63;2.90;;;;;;;;;;4961074;28;20163;-93
2023/06/16 10:49:07;;;;;;;5.90;2.45;;;;;;;;;;4975604;28;20125;-89
2023/06/16 10:51:48;;;;;;;4.45;2.55;;;;;;;;;;4990684;28;20057;-90
2023/06/16 10:54:16;;;;;;;5.10;2.60;;;;;;;;;;4979871;28;20058;-90
2023/06/16 10:57:01;;;;;;;4.18;2.45;;;;;;;;;;4997771;28;20052;-90
2023/06/16 10:59:28;;;;;;;6.03;2.45;;;;;;;;;;4984854;28;20070;-89
2023/06/16 11:02:19;;;;;;;4.90;2.20;;;;;;;;;;4987671;28;20046;-88
2023/06/16 11:05:04;;;;;;;6.35;2.30;;;;;;;;;;5020617;28;20050;-90
2023/06/16 11:07:30;;;;;;;5.32;2.47;;;;;;;;;;4979016;28;20228;-89
2023/06/16 11:09:58;;;;;;;8.98;2.75;;;;;;;;;;4965784;28;20324;-90
2023/06/16 11:12:25;;;;;;;7.95;2.97;;;;;;;;;;4984409;28;20038;-89
2023/06/16 11:14:52;;;;;;;6.57;2.53;;;;;;;;;;4985003;28;20050;-90
2023/06/16 11:17:19;;;;;;;14.68;2.55;;;;;;;;;;4996088;28;20568;-89
2023/06/16 11:19:50;;;;;;;7.22;2.33;;;;;;;;;;4982974;28;20095;-91
2023/06/16 11:22:16;;;;;;;4.53;2.38;;;;;;;;;;4993757;28;20104;-88
2023/06/16 11:24:42;;;;;;;3.90;2.53;;;;;;;;;;4986021;28;20368;-89
2023/06/16 11:27:08;;;;;;;6.22;2.88;;;;;;;;;;4979854;28;20241;-89
2023/06/16 11:29:36;;;;;;;8.10;3.10;;;;;;;;;;4994800;28;20058;-89
2023/06/16 11:32:02;;;;;;;5.95;2.80;;;;;;;;;;4980156;28;20367;-90
2023/06/16 11:34:28;;;;;;;8.63;2.78;;;;;;;;;;4983869;28;20113;-90
2023/06/16 11:36:57;;;;;;;5.28;2.42;;;;;;;;;;4988919;28;20043;-91
2023/06/16 11:39:23;;;;;;;3.35;2.45;;;;;;;;;;4981896;28;20078;-90
2023/06/16 11:41:55;;;;;;;6.18;2.63;;;;;;;;;;4975629;28;20047;-90
2023/06/16 11:44:21;;;;;;;3.83;2.63;;;;;;;;;;4963455;28;20054;-89
2023/06/16 11:46:47;;;;;;;9.18;2.55;;;;;;;;;;4996868;28;20042;-90
2023/06/16 11:49:13;;;;;;;6.35;2.88;;;;;;;;;;4977907;28;20042;-92
2023/06/16 11:51:39;;;;;;;8.95;2.47;;;;;;;;;;4984924;28;20051;-90
2023/06/16 11:54:05;;;;;;;5.85;2.35;;;;;;;;;;4982437;28;20065;-90
2023/06/16 11:56:33;;;;;;;4.63;2.30;;;;;;;;;;4972794;28;20589;-91
2023/06/16 11:59:03;;;;;;;6.80;2.25;;;;;;;;;;4993839;28;20073;-92
2023/06/16 12:01:29;;;;;;;11.80;2.60;;;;;;;;;;4983907;28;20054;-90
2023/06/16 12:03:56;;;;;;;5.65;2.20;;;;;;;;;;4978195;28;20050;-89
2023/06/16 12:06:23;;;;;;;4.33;2.30;;;;;;;;;;4961834;28;20047;-91
2023/06/16 12:08:49;;;;;;;5.07;2.03;;;;;;;;;;4979060;28;21377;-90
2023/06/16 12:11:26;;;;;;;6.43;2.20;;;;;;;;;;4961979;28;20483;-91
2023/06/16 12:13:54;;;;;;;8.43;2.33;;;;;;;;;;4981023;28;20502;-91
2023/06/16 12:16:20;;;;;;;5.95;2.20;;;;;;;;;;4983091;28;20172;-90
2023/06/16 12:18:49;;;;;;;5.65;2.03;;;;;;;;;;4983710;28;20108;-91
2023/06/16 12:21:23;;;;;;;5.47;2.33;;;;;;;;;;4987563;28;20080;-90
2023/06/16 12:23:52;;;;;;;8.93;2.00;;;;;;;;;;4983820;28;20044;-93
2023/06/16 12:26:31;;;;;;;4.30;2.30;;;;;;;;;;4963224;28;20121;-89
2023/06/16 12:29:01;;;;;;;5.57;2.20;;;;;;;;;;5006440;28;20060;-93
2023/06/16 12:31:28;;;;;;;8.63;2.30;;;;;;;;;;4996860;28;20054;-91
2023/06/16 12:33:57;;;;;;;11.25;2.38;;;;;;;;;;4987066;28;20125;-91
2023/06/16 12:36:23;;;;;;;10.48;2.45;;;;;;;;;;4985381;28;20048;-92
2023/06/16 12:38:50;;;;;;;10.77;2.65;;;;;;;;;;4971762;28;20088;-91
2023/06/16 12:41:17;;;;;;;7.57;2.50;;;;;;;;;;5001790;28;20054;-90
2023/06/16 12:43:50;;;;;;;28.60;3.22;;;;;;;;;;4997851;28;20054;-90
2023/06/16 12:46:22;;;;;;;9.38;2.53;;;;;;;;;;4997042;28;20159;-92
2023/06/16 12:48:48;;;;;;;12.25;2.50;;;;;;;;;;4987052;28;20454;-91
2023/06/16 12:51:17;;;;;;;4.65;2.30;;;;;;;;;;4969609;28;20092;-91
2023/06/16 12:53:44;;;;;;;29.52;3.10;;;;;;;;;;5000263;28;20051;-90
2023/06/16 12:56:17;;;;;;;3.97;2.00;;;;;;;;;;4967868;28;20088;-93
2023/06/16 12:58:44;;;;;;;4.72;2.83;;;;;;;;;;4983823;28;20494;-92
2023/06/16 13:01:11;;;;;;;6.03;2.22;;;;;;;;;;4977781;28;20082;-93
2023/06/16 13:03:40;;;;;;;9.05;3.13;;;;;;;;;;4988015;28;20388;-90
2023/06/16 13:06:07;;;;;;;5.22;2.60;;;;;;;;;;4964230;28;20047;-90
2023/06/16 13:08:33;;;;;;;14.20;2.80;;;;;;;;;;4983629;28;20034;-90
2023/06/16 13:10:59;;;;;;;3.83;2.22;;;;;;;;;;4971640;28;20500;-91
2023/06/16 13:13:28;;;;;;;8.70;2.60;;;;;;;;;;4985117;28;20165;-90
2023/06/16 13:15:54;;;;;;;12.98;2.80;;;;;;;;;;4986864;28;20040;-90
2023/06/16 13:18:20;;;;;;;5.45;2.50;;;;;;;;;;4982840;28;20042;-92
2023/06/16 13:20:47;;;;;;;5.43;2.42;;;;;;;;;;4979121;28;20058;-92
2023/06/16 13:23:21;;;;;;;8.15;2.72;;;;;;;;;;4965610;28;20049;-91
2023/06/16 13:25:47;;;;;;;5.15;2.30;;;;;;;;;;4982184;28;20123;-90
2023/06/16 13:28:13;;;;;;;4.72;2.15;;;;;;;;;;4979469;28;20055;-89
2023/06/16 13:30:40;;;;;;;6.68;2.10;;;;;;;;;;4986596;28;20191;-90
2023/06/16 13:33:08;;;;;;;5.90;2.38;;;;;;;;;;4959443;28;20039;-90
2023/06/16 13:35:34;;;;;;;8.15;2.55;;;;;;;;;;4979847;28;20050;-91
2023/06/16 13:38:01;;;;;;;4.22;2.28;;;;;;;;;;4967494;28;20034;-92
2023/06/16 13:40:27;;;;;;;5.90;2.38;;;;;;;;;;4966792;28;20042;-91
2023/06/16 13:42:55;;;;;;;3.92;2.47;;;;;;;;;;4982452;28;20053;-90
2023/06/16 13:45:21;;;;;;;4.53;2.45;;;;;;;;;;4978277;28;20046;-89
2023/06/16 13:47:47;;;;;;;7.55;2.47;;;;;;;;;;4967922;28;20043;-91
2023/06/16 13:50:16;;;;;;;6.50;2.17;;;;;;;;;;4984279;28;20137;-92
2023/06/16 13:52:42;;;;;;;4.60;2.13;;;;;;;;;;4965128;28;20043;-91
2023/06/16 13:55:12;;;;;;;3.88;2.10;;;;;;;;;;4979420;28;20222;-91
2023/06/16 13:57:40;;;;;;;4.15;2.45;;;;;;;;;;4963908;28;20062;-91
2023/06/16 14:00:10;;;;;;;4.53;2.30;;;;;;;;;;4975614;28;20074;-92
2023/06/16 14:02:39;;;;;;;6.85;2.38;;;;;;;;;;4963634;28;20046;-90
2023/06/16 14:05:09;;;;;;;4.50;2.20;;;;;;;;;;4980295;28;20042;-91
2023/06/16 14:07:38;;;;;;;5.25;2.40;;;;;;;;;;4971240;28;20042;-92
2023/06/16 14:10:10;;;;;;;13.32;2.35;;;;;;;;;;4979807;28;20054;-94
2023/06/16 14:12:36;;;;;;;7.90;2.50;;;;;;;;;;4970450;28;20053;-92
2023/06/16 14:15:06;;;;;;;4.78;2.47;;;;;;;;;;4965941;28;20034;-91
2023/06/16 14:17:32;;;;;;;4.70;2.40;;;;;;;;;;4969427;28;20043;-91
2023/06/16 14:20:02;;;;;;;5.70;2.25;;;;;;;;;;4969147;28;20058;-91
2023/06/16 14:22:37;;;;;;;5.75;2.45;;;;;;;;;;4993748;28;20053;-92
2023/06/16 14:25:03;;;;;;;3.53;2.40;;;;;;;;;;4966710;28;20048;-90
2023/06/16 14:27:47;;;;;;;5.55;2.30;;;;;;;;;;4977071;28;20055;-91
2023/06/16 14:30:19;;;;;;;7.18;2.30;;;;;;;;;;4983015;28;20196;-92
2023/06/16 14:33:06;;;;;;;4.55;2.20;;;;;;;;;;4978209;28;20432;-92
2023/06/16 14:35:38;;;;;;;8.40;2.70;;;;;;;;;;4966492;28;20050;-92
2023/06/16 14:38:16;;;;;;;3.90;2.15;;;;;;;;;;4967219;28;20062;-92
2023/06/16 14:40:48;;;;;;;4.65;2.30;;;;;;;;;;4958607;28;20059;-91